ARKANSAS RIVER NAVIGATION REPORT
  LITTLE ROCK DISTRICT - U.S. ARMY CORPS OF ENGINEERS
  GENERATED: 27 MAY 2019 @  4:05
 
  NOTE: These data are not guaranteed to be valid or correct.
        RELEASES AND FLOWS ARE IN THOUSANDS OF CFS
  _____________________________________________________________________________
 
                  26MAY     26MAY      26MAY           27MAY          27MAY
                  @1200     @2400     AVERAGE      LATEST OBSERVED    PRECIP.
                  HOURS     HOURS      FLOW         DATA AND TIME     (7A-7A)
  _____________________________________________________________________________
 
  LD13 HW-ELEV    405.82    406.89                407.10  @   3:00      0.00
  LD13 TW-ELEV    404.22    405.29                405.50  @   3:00
  LD13 RELEASE    454.4     475.8     454.7       480.0   @   3:00
 
  OZA.L&D HW-ELEV 371.72    373.05                373.49  @   3:00      0.00
  OZA.L&D TW-ELEV 370.75    371.79                371.99  @   3:00
  OZA.L&D RELEASE 411.5     452.4     412.7       460.6   @   3:00
 
  DRD.L&D HW-ELEV 337.31    337.11                337.23  @   3:00      0.00
  DRD.L&D TW-ELEV 319.43    320.45                321.17  @   3:00
  DRD.L&D RELEASE 379.3     424.4     382.8       424.4   @   3:00
 
  LD09 HW-ELEV    297.64    298.90                299.18  @   3:00      0.00
  LD09 TW-ELEV    296.84    298.10                298.38  @   3:00
  LD09 RELEASE    355.5     389.2     355.7       397.6   @   3:00
 
  LD08 HW-ELEV    278.52    279.58                279.92  @   3:00      0.00
  LD08 TW-ELEV    277.72    278.78                279.12  @   3:00
  LD08 RELEASE    295.8     315.6     296.2       323.0   @   3:00
 
  LD07 HW-ELEV    248.27    249.42                249.61  @   3:00      0.00
  LD07 TW-ELEV    247.03    248.16                248.43  @   3:00
  LD07 RELEASE    270.6     293.2     271.0       298.6   @   3:00
 
  LD06 HW-ELEV    234.35    235.46                235.72  @   3:00      0.00
  LD06 TW-ELEV    233.21    -99.90                234.48  @   3:00
  LD06 RELEASE    259.7       -.1     249.4       285.9   @   3:00
 
  LD05 HW-ELEV    215.51    216.58                216.86  @   3:00      0.00
  LD05 TW-ELEV    214.51    215.58                215.83  @   3:00
  LD05 RELEASE    257.1     277.8     258.0       283.1   @   3:00
 
  LD04 HW-ELEV    199.61    200.63                200.85  @   3:00      0.00
  LD04 TW-ELEV    198.68    199.66                199.86  @   3:00
  LD04 RELEASE    256.1     278.2     257.2       282.9   @   3:00
 
  LD03 HW-ELEV    186.99    187.85                188.04  @   3:00      0.00
  LD03 TW-ELEV    186.19    187.01                187.18  @   3:00
  LD03 RELEASE    249.5     270.0     250.3       274.1   @   3:00
 
  L02 HW-ELEV     162.57    162.76                162.57  @   3:00      0.00
 
  D02 HW-ELEV     160.67    160.44                160.48  @   3:00      0.00
  D02 TW-ELEV     156.83    156.83                156.83  @   8:00
  D02 RELEASE     218.4     218.4                 218.4   @   8:00
 
  L01 TW-ELEV     155.57    155.46                155.45  @   3:00      0.00
 
  MPLD HW-ELEV    155.04    154.92                154.88  @   3:00      0.00	
  MPLD TW-ELEV    154.74    154.62                154.58  @   3:00
 
  WREC DIFF.         .53       .54                   .57
  CLARENDON FLOW  ******     62.86    146.05       62.44  @   3:00
  HELENA STAGE     40.35     39.99                 39.99  @   3:00
  CAIRO STAGE      42.44     42.66                 42.51  @   3:00
  _____________________________________________________________________________